Time;durP1;ratioP1;P1;durP2;ratioP2;P2;SDS_P1;SDS_P2;PMS_P1;PMS_P2;Temp;Humidity;BMP_temperature;BMP_pressure;BME280_temperature;BME280_humidity;BME280_pressure;Samples;Min_cycle;Max_cycle;Signal;HPM_P1;HPM_P2
2022/08/14 00:00:46;;;;;;;6.47;5.97;;;19.50;99.90;;;;;;5019393;28;20678;-73
2022/08/14 00:03:26;;;;;;;5.90;5.50;;;19.40;99.90;;;;;;5026441;28;20215;-73
2022/08/14 00:05:53;;;;;;;6.28;5.72;;;19.40;99.90;;;;;;5026220;28;20205;-73
2022/08/14 00:08:19;;;;;;;5.85;5.45;;;19.40;99.90;;;;;;5027469;28;20181;-74
2022/08/14 00:10:45;;;;;;;6.65;6.15;;;19.40;99.90;;;;;;5021316;28;20226;-74
2022/08/14 00:13:11;;;;;;;7.15;6.57;;;19.30;99.90;;;;;;5025796;28;20919;-74
2022/08/14 00:15:41;;;;;;;6.68;6.25;;;19.20;99.90;;;;;;5024748;28;20217;-74
2022/08/14 00:18:08;;;;;;;6.18;5.78;;;19.20;99.90;;;;;;5025967;28;20208;-74
2022/08/14 00:20:37;;;;;;;6.40;5.82;;;19.20;99.90;;;;;;5021000;28;20189;-75
2022/08/14 00:23:05;;;;;;;6.45;5.88;;;19.20;99.90;;;;;;5030909;28;20201;-74
2022/08/14 00:25:30;;;;;;;6.50;5.90;;;19.20;99.90;;;;;;5028767;28;20235;-75
2022/08/14 00:27:56;;;;;;;6.70;6.20;;;19.20;99.90;;;;;;5024714;28;20180;-73
2022/08/14 00:30:22;;;;;;;6.10;5.70;;;19.10;99.90;;;;;;5022979;28;20188;-74
2022/08/14 00:32:48;;;;;;;6.57;6.07;;;19.10;99.90;;;;;;5026186;28;20176;-74
2022/08/14 00:35:13;;;;;;;6.78;6.18;;;19.10;99.90;;;;;;5031369;28;20721;-73
2022/08/14 00:37:41;;;;;;;6.93;6.38;;;19.10;99.90;;;;;;5036115;28;20226;-74
2022/08/14 00:40:09;;;;;;;6.57;6.07;;;19.00;99.90;;;;;;5029153;28;20179;-74
2022/08/14 00:42:35;;;;;;;6.85;6.18;;;18.90;99.90;;;;;;5030686;28;20180;-74
2022/08/14 00:45:02;;;;;;;6.78;6.20;;;18.90;99.90;;;;;;5026591;28;20581;-73
2022/08/14 00:47:27;;;;;;;6.57;5.97;;;18.90;99.90;;;;;;5026649;28;20197;-74
2022/08/14 00:49:55;;;;;;;7.10;6.60;;;18.90;99.90;;;;;;5027996;28;20187;-73
2022/08/14 00:52:22;;;;;;;6.05;5.65;;;19.00;99.90;;;;;;5027356;28;20173;-74
2022/08/14 00:54:53;;;;;;;6.43;5.95;;;19.00;99.90;;;;;;5027841;28;20223;-74
2022/08/14 00:57:21;;;;;;;6.97;6.38;;;18.90;99.90;;;;;;5033445;28;20204;-74
2022/08/14 00:59:47;;;;;;;6.65;6.13;;;18.80;99.90;;;;;;5028596;28;20178;-77
2022/08/14 01:02:17;;;;;;;6.32;5.93;;;18.80;99.90;;;;;;5024341;28;20181;-76
2022/08/14 01:04:47;;;;;;;7.00;6.50;;;18.70;99.90;;;;;;5027807;28;20286;-77
2022/08/14 01:07:18;;;;;;;6.80;6.20;;;18.70;99.90;;;;;;5026662;28;20184;-75
2022/08/14 01:09:46;;;;;;;7.05;6.35;;;18.70;99.90;;;;;;5029595;28;20227;-76
2022/08/14 01:12:11;;;;;;;7.53;6.93;;;18.70;99.90;;;;;;5023223;28;20283;-76
2022/08/14 01:14:38;;;;;;;7.22;6.72;;;18.60;99.90;;;;;;5032365;28;20197;-76
2022/08/14 01:17:04;;;;;;;7.22;6.70;;;18.50;99.90;;;;;;5030029;28;20274;-76
2022/08/14 01:22:14;;;;;;;6.47;5.97;;;18.50;99.90;;;;;;5019875;28;20235;-77
2022/08/14 01:24:41;;;;;;;7.20;6.70;;;18.50;99.90;;;;;;5023676;28;20209;-76
2022/08/14 01:27:12;;;;;;;6.65;6.25;;;18.50;99.90;;;;;;5023735;28;20195;-75
2022/08/14 01:29:38;;;;;;;7.38;6.88;;;18.50;99.90;;;;;;5026983;28;20172;-76
2022/08/14 01:32:05;;;;;;;6.78;6.18;;;18.40;99.90;;;;;;5024517;28;20644;-76
2022/08/14 01:34:31;;;;;;;7.57;6.97;;;18.30;99.90;;;;;;5028963;28;20190;-77
2022/08/14 01:36:58;;;;;;;7.18;6.68;;;18.20;99.90;;;;;;5026829;28;20581;-76
2022/08/14 01:39:24;;;;;;;7.03;6.55;;;18.00;99.90;;;;;;5031325;28;20188;-76
2022/08/14 01:41:59;;;;;;;6.70;6.30;;;18.00;99.90;;;;;;5024903;28;20180;-76
2022/08/14 01:44:30;;;;;;;7.32;6.65;;;17.90;99.90;;;;;;5030251;28;20298;-76
2022/08/14 01:46:57;;;;;;;6.72;6.22;;;17.80;99.90;;;;;;5027630;28;20213;-76
2022/08/14 01:49:23;;;;;;;6.72;6.32;;;17.80;99.90;;;;;;5024664;28;20184;-76
2022/08/14 01:51:53;;;;;;;6.63;6.13;;;17.80;99.90;;;;;;5034845;28;20208;-76
2022/08/14 01:54:19;;;;;;;7.82;7.13;;;17.80;99.90;;;;;;5030240;28;20205;-76
2022/08/14 01:56:45;;;;;;;6.75;6.15;;;17.70;99.90;;;;;;5027002;28;20207;-77
2022/08/14 01:59:20;;;;;;;7.35;6.70;;;17.80;99.90;;;;;;5033077;28;20192;-76
2022/08/14 02:01:52;;;;;;;7.50;6.97;;;17.70;99.90;;;;;;5030931;28;20653;-77
2022/08/14 02:04:19;;;;;;;6.78;6.28;;;17.80;99.90;;;;;;5030983;28;20216;-77
2022/08/14 02:06:46;;;;;;;6.88;6.47;;;17.80;99.90;;;;;;5030064;28;20206;-77
2022/08/14 02:09:12;;;;;;;7.25;6.72;;;17.70;99.90;;;;;;5025365;28;20173;-77
2022/08/14 02:11:38;;;;;;;7.47;6.88;;;17.70;99.90;;;;;;5028586;28;20544;-77
2022/08/14 02:14:08;;;;;;;6.68;6.15;;;17.60;99.90;;;;;;5019558;28;20228;-77
2022/08/14 02:16:39;;;;;;;7.80;7.22;;;17.60;99.90;;;;;;5029072;28;20372;-75
2022/08/14 02:19:08;;;;;;;6.80;6.30;;;17.50;99.90;;;;;;5018489;28;20311;-76
2022/08/14 02:21:35;;;;;;;7.35;6.75;;;17.40;99.90;;;;;;5036638;28;20180;-76
2022/08/14 02:24:02;;;;;;;8.32;7.63;;;17.40;99.90;;;;;;5037009;28;20204;-76
2022/08/14 02:26:32;;;;;;;7.95;7.35;;;17.30;99.90;;;;;;5043114;28;20195;-77
2022/08/14 02:29:08;;;;;;;7.32;6.72;;;17.30;99.90;;;;;;5037491;28;20533;-77
2022/08/14 02:31:36;;;;;;;8.13;7.60;;;17.30;99.90;;;;;;5032022;28;20168;-77
2022/08/14 02:34:09;;;;;;;7.57;7.05;;;17.20;99.90;;;;;;5028793;28;20598;-76
2022/08/14 02:36:36;;;;;;;8.52;7.78;;;17.20;99.90;;;;;;5036449;28;20207;-77
2022/08/14 02:39:04;;;;;;;7.68;6.97;;;17.20;99.90;;;;;;5033868;28;20187;-77
2022/08/14 02:41:31;;;;;;;7.18;6.68;;;17.10;99.90;;;;;;5026340;28;20189;-77
2022/08/14 02:43:57;;;;;;;8.25;7.63;;;17.10;99.90;;;;;;5026316;28;20185;-77
2022/08/14 02:46:22;;;;;;;8.68;7.60;;;17.00;99.90;;;;;;5022852;28;20208;-77
2022/08/14 02:48:48;;;;;;;8.27;7.65;;;17.00;99.90;;;;;;5026528;28;20314;-76
2022/08/14 02:51:14;;;;;;;8.88;8.18;;;16.90;99.90;;;;;;5019930;28;20176;-76
2022/08/14 02:53:44;;;;;;;8.52;7.93;;;16.90;99.90;;;;;;5028585;28;20180;-75
2022/08/14 02:56:15;;;;;;;8.82;8.13;;;16.90;99.90;;;;;;5025100;28;20247;-76
2022/08/14 02:58:45;;;;;;;8.07;7.43;;;16.90;99.90;;;;;;5023992;28;20187;-76
2022/08/14 03:01:12;;;;;;;8.80;7.78;;;16.90;99.90;;;;;;5024968;28;20251;-76
2022/08/14 03:03:38;;;;;;;8.43;7.65;;;16.90;99.90;;;;;;5030445;28;20204;-77
2022/08/14 03:06:05;;;;;;;8.35;7.60;;;16.90;99.90;;;;;;5026052;28;20203;-77
2022/08/14 03:08:32;;;;;;;8.55;7.85;;;16.90;99.90;;;;;;5026334;28;20545;-76
2022/08/14 03:11:00;;;;;;;8.25;7.60;;;16.80;99.90;;;;;;5025119;28;20259;-76
2022/08/14 03:13:26;;;;;;;8.13;7.32;;;16.80;99.90;;;;;;5026891;28;20568;-76
2022/08/14 03:15:52;;;;;;;8.40;7.70;;;16.80;99.90;;;;;;5026287;28;20264;-76
2022/08/14 03:18:22;;;;;;;8.88;8.27;;;16.90;99.90;;;;;;5025023;28;20592;-77
2022/08/14 03:20:48;;;;;;;8.40;7.82;;;16.90;99.90;;;;;;5027725;28;20535;-77
2022/08/14 03:23:14;;;;;;;9.18;8.48;;;16.90;99.90;;;;;;5025136;28;20618;-76
2022/08/14 03:25:40;;;;;;;8.75;8.05;;;16.80;99.90;;;;;;5019901;28;20239;-76
2022/08/14 03:28:08;;;;;;;8.43;7.63;;;16.80;99.90;;;;;;5032203;28;20172;-76
2022/08/14 03:30:35;;;;;;;12.05;8.57;;;16.80;99.90;;;;;;5028770;28;20184;-76
2022/08/14 03:33:01;;;;;;;8.40;7.70;;;16.80;99.90;;;;;;5027582;28;20195;-75
2022/08/14 03:35:28;;;;;;;8.93;8.30;;;16.90;99.90;;;;;;5039350;28;20699;-75
2022/08/14 03:37:54;;;;;;;8.98;8.27;;;16.90;99.90;;;;;;5031781;28;20196;-75
2022/08/14 03:40:21;;;;;;;9.15;8.35;;;16.80;99.90;;;;;;5029170;28;20176;-75
2022/08/14 03:42:47;;;;;;;8.75;8.05;;;16.80;99.90;;;;;;5029518;28;20176;-75
2022/08/14 03:45:14;;;;;;;8.50;7.90;;;16.80;99.90;;;;;;5026356;28;20184;-76
2022/08/14 03:47:40;;;;;;;7.65;6.95;;;16.90;99.90;;;;;;5024896;28;20200;-76
2022/08/14 03:50:10;;;;;;;8.38;7.68;;;16.90;99.90;;;;;;5025330;28;20183;-76
2022/08/14 03:52:41;;;;;;;8.75;8.05;;;17.00;99.90;;;;;;5030797;28;20180;-75
2022/08/14 03:55:11;;;;;;;8.02;7.43;;;17.00;99.90;;;;;;5018687;28;20196;-77
2022/08/14 03:57:38;;;;;;;7.75;7.15;;;17.10;99.90;;;;;;5027343;28;20197;-76
2022/08/14 04:00:07;;;;;;;8.45;7.75;;;17.00;99.90;;;;;;5019739;28;20177;-76
2022/08/14 04:02:33;;;;;;;8.55;7.95;;;17.00;99.90;;;;;;5030650;28;20173;-77
2022/08/14 04:05:00;;;;;;;8.13;7.43;;;17.00;99.90;;;;;;5033396;28;20219;-77
2022/08/14 04:07:26;;;;;;;7.90;7.25;;;16.90;99.90;;;;;;5034252;28;20189;-76
2022/08/14 04:09:52;;;;;;;9.20;8.18;;;16.80;99.90;;;;;;5031742;28;20180;-75
2022/08/14 04:12:18;;;;;;;8.57;7.97;;;16.80;99.90;;;;;;5031865;28;20185;-77
2022/08/14 04:14:44;;;;;;;8.20;7.55;;;16.70;99.90;;;;;;5031318;28;20180;-76
2022/08/14 04:17:10;;;;;;;8.57;7.97;;;16.60;99.90;;;;;;5027670;28;20200;-76
2022/08/14 04:19:37;;;;;;;8.73;8.02;;;16.60;99.90;;;;;;5031771;28;20264;-77
2022/08/14 04:22:03;;;;;;;8.77;8.07;;;16.50;99.90;;;;;;5034056;28;20184;-77
2022/08/14 04:24:29;;;;;;;8.95;8.15;;;16.50;99.90;;;;;;5032544;28;20746;-77
2022/08/14 04:26:55;;;;;;;8.13;7.53;;;16.60;99.90;;;;;;5026238;28;20539;-77
2022/08/14 04:29:20;;;;;;;8.23;7.63;;;16.50;99.90;;;;;;5022115;28;20188;-76
2022/08/14 04:31:46;;;;;;;9.27;8.40;;;16.50;99.90;;;;;;5033743;28;20795;-76
2022/08/14 04:34:12;;;;;;;8.05;7.50;;;16.60;99.90;;;;;;5032972;28;20184;-76
2022/08/14 04:43:34;;;;;;;8.73;8.10;;;16.60;99.90;;;;;;5028099;28;20204;-75
2022/08/14 04:44:51;;;;;;;8.45;7.82;;;16.70;99.90;;;;;;5035241;28;20633;-75
2022/08/14 04:50:03;;;;;;;9.38;8.68;;;16.80;99.90;;;;;;5031276;28;20190;-76
2022/08/14 04:52:29;;;;;;;8.70;8.00;;;16.90;99.90;;;;;;5034371;28;20593;-75
2022/08/14 04:54:55;;;;;;;9.65;8.82;;;17.00;99.90;;;;;;5035245;28;20180;-75
2022/08/14 04:57:20;;;;;;;9.65;8.85;;;17.00;99.90;;;;;;5031860;28;20288;-75
2022/08/14 04:59:46;;;;;;;9.07;8.38;;;17.10;99.90;;;;;;5027004;28;20185;-75
2022/08/14 05:02:12;;;;;;;9.38;8.68;;;17.20;99.90;;;;;;5033474;28;20706;-77
2022/08/14 05:04:39;;;;;;;8.65;8.05;;;17.20;99.90;;;;;;5028606;28;20561;-75
2022/08/14 05:07:05;;;;;;;8.65;8.00;;;17.30;99.90;;;;;;5024780;28;20200;-82
2022/08/14 05:09:30;;;;;;;9.13;8.32;;;17.40;99.90;;;;;;5030818;28;20184;-79
2022/08/14 05:11:56;;;;;;;8.88;8.18;;;17.50;99.90;;;;;;5037576;28;20172;-77
2022/08/14 05:14:22;;;;;;;8.80;8.00;;;17.60;99.90;;;;;;5019545;28;20269;-79
2022/08/14 05:16:48;;;;;;;8.23;7.63;;;17.70;99.90;;;;;;5022380;28;20675;-77
2022/08/14 05:19:14;;;;;;;8.73;8.02;;;17.70;99.90;;;;;;5025673;28;20268;-77
2022/08/14 05:21:41;;;;;;;8.95;8.25;;;17.80;99.90;;;;;;5024416;28;20173;-77
2022/08/14 05:24:07;;;;;;;8.88;8.18;;;17.90;99.90;;;;;;5037228;28;20196;-80
2022/08/14 05:26:32;;;;;;;8.80;8.10;;;18.00;99.90;;;;;;5030630;28;20659;-77
2022/08/14 05:28:58;;;;;;;8.82;8.02;;;18.10;99.90;;;;;;5024316;28;20218;-79
2022/08/14 05:31:24;;;;;;;9.00;8.30;;;18.10;99.90;;;;;;5025630;28;20259;-76
2022/08/14 05:33:49;;;;;;;9.88;8.57;;;18.20;99.90;;;;;;5038623;28;20184;-76
2022/08/14 05:36:15;;;;;;;8.30;7.60;;;18.30;99.90;;;;;;5025105;28;20205;-79
2022/08/14 05:38:44;;;;;;;8.82;8.02;;;18.40;99.90;;;;;;5028388;28;20188;-79
2022/08/14 05:41:12;;;;;;;8.48;7.82;;;18.40;99.90;;;;;;5035933;28;20183;-79
2022/08/14 05:43:39;;;;;;;8.27;7.60;;;18.50;99.90;;;;;;5034114;28;20211;-78
2022/08/14 05:46:06;;;;;;;8.65;8.05;;;18.70;99.90;;;;;;5032437;28;20211;-79
2022/08/14 05:48:33;;;;;;;8.07;7.38;;;18.70;99.90;;;;;;5023165;28;20259;-79
2022/08/14 05:50:58;;;;;;;8.35;7.55;;;18.80;99.90;;;;;;5032141;28;20191;-78
2022/08/14 05:53:25;;;;;;;9.00;8.35;;;18.90;99.90;;;;;;5033060;28;20185;-79
2022/08/14 05:55:51;;;;;;;9.55;8.75;;;18.90;99.90;;;;;;5036848;28;20200;-77
2022/08/14 05:58:17;;;;;;;8.35;7.55;;;19.00;99.90;;;;;;5033525;28;20269;-76
2022/08/14 06:00:45;;;;;;;7.32;6.80;;;19.00;99.90;;;;;;5034734;28;20184;-77
2022/08/14 06:03:15;;;;;;;8.45;7.75;;;19.20;99.90;;;;;;5030238;28;20268;-77
2022/08/14 06:05:41;;;;;;;8.27;7.40;;;19.20;99.90;;;;;;5030635;28;20198;-77
2022/08/14 06:08:28;;;;;;;8.77;7.63;;;19.30;99.90;;;;;;5026050;28;20667;-76
2022/08/14 06:11:01;;;;;;;8.25;7.53;;;19.50;99.90;;;;;;5031384;28;20188;-77
2022/08/14 06:13:27;;;;;;;7.07;6.57;;;19.50;99.90;;;;;;5027077;28;20245;-75
2022/08/14 06:15:53;;;;;;;8.00;7.40;;;19.70;99.90;;;;;;5018172;28;20626;-75
2022/08/14 06:18:19;;;;;;;7.82;7.22;;;19.80;99.90;;;;;;5020120;28;20230;-73
2022/08/14 06:20:45;;;;;;;7.97;7.38;;;19.80;99.90;;;;;;5025233;28;20282;-74
2022/08/14 06:23:11;;;;;;;7.93;7.22;;;19.90;99.90;;;;;;5026116;28;20184;-75
2022/08/14 06:25:36;;;;;;;7.40;6.88;;;20.00;99.90;;;;;;5041693;28;20180;-75
2022/08/14 06:28:03;;;;;;;6.85;6.35;;;20.10;99.90;;;;;;5029026;28;20723;-75
2022/08/14 06:30:32;;;;;;;8.10;7.38;;;20.20;99.90;;;;;;5030432;28;20185;-76
2022/08/14 06:32:58;;;;;;;8.15;7.45;;;20.40;99.90;;;;;;5031670;28;20215;-75
2022/08/14 06:35:24;;;;;;;6.35;5.95;;;20.50;99.90;;;;;;5029583;28;20219;-74
2022/08/14 06:37:50;;;;;;;7.72;7.13;;;20.60;99.90;;;;;;5033867;28;20255;-74
2022/08/14 06:40:21;;;;;;;7.10;6.60;;;20.70;99.90;;;;;;5037796;28;20284;-74
2022/08/14 06:42:47;;;;;;;7.30;6.80;;;20.80;99.90;;;;;;5030567;28;20179;-75
2022/08/14 06:45:13;;;;;;;7.10;6.55;;;21.00;99.90;;;;;;5019124;28;20679;-74
2022/08/14 06:47:41;;;;;;;6.65;6.15;;;21.10;99.90;;;;;;5028014;28;20679;-76
2022/08/14 06:50:10;;;;;;;7.85;7.15;;;21.20;99.90;;;;;;5028546;28;20176;-75
2022/08/14 06:52:36;;;;;;;7.13;6.63;;;21.20;99.90;;;;;;5032384;28;20567;-76
2022/08/14 06:55:03;;;;;;;6.90;6.40;;;21.20;99.90;;;;;;5022166;28;20569;-75
2022/08/14 06:57:37;;;;;;;6.93;6.43;;;21.30;99.90;;;;;;5029978;28;20197;-74
2022/08/14 07:00:09;;;;;;;6.85;6.30;;;21.40;99.90;;;;;;5031012;28;20177;-78
2022/08/14 07:08:03;;;;;;;6.38;5.88;;;21.70;99.90;;;;;;5024920;28;20678;-76
2022/08/14 07:10:29;;;;;;;6.63;6.07;;;21.80;99.90;;;;;;5036919;28;20180;-77
2022/08/14 07:12:55;;;;;;;6.00;5.60;;;21.90;99.90;;;;;;5024281;28;20196;-77
2022/08/14 07:15:20;;;;;;;6.10;5.60;;;22.10;99.90;;;;;;5022130;28;20185;-76
2022/08/14 07:17:48;;;;;;;13.45;5.40;;;22.20;99.90;;;;;;5023022;28;20216;-76
2022/08/14 07:20:19;;;;;;;6.45;5.85;;;22.20;99.90;;;;;;5027439;28;20285;-76
2022/08/14 07:22:46;;;;;;;5.45;5.05;;;22.30;99.90;;;;;;5026347;28;20506;-76
2022/08/14 07:25:12;;;;;;;5.78;5.30;;;22.50;99.90;;;;;;5026025;28;20841;-74
2022/08/14 07:27:41;;;;;;;5.78;5.43;;;22.60;99.90;;;;;;5030959;28;20209;-75
2022/08/14 07:30:07;;;;;;;5.68;5.28;;;22.80;99.90;;;;;;5030310;28;20215;-75
2022/08/14 07:32:33;;;;;;;5.63;5.22;;;22.90;99.90;;;;;;5030377;28;20255;-75
2022/08/14 07:34:59;;;;;;;5.50;5.20;;;23.00;99.90;;;;;;5028269;28;20866;-74
2022/08/14 07:37:24;;;;;;;6.07;5.15;;;23.10;99.90;;;;;;5031970;28;20204;-74
2022/08/14 07:39:50;;;;;;;6.38;5.88;;;23.30;99.90;;;;;;5029653;28;20259;-74
2022/08/14 07:42:16;;;;;;;5.22;4.90;;;23.30;99.90;;;;;;5029832;28;20177;-74
2022/08/14 07:44:41;;;;;;;6.18;5.72;;;23.50;99.90;;;;;;5033071;28;20213;-75
2022/08/14 07:47:07;;;;;;;6.13;5.72;;;23.60;99.90;;;;;;5033833;28;20706;-75
2022/08/14 07:49:33;;;;;;;6.20;5.80;;;23.70;99.90;;;;;;5030181;28;20568;-74
2022/08/14 07:52:02;;;;;;;6.05;5.55;;;23.80;99.90;;;;;;5027927;28;20168;-74
2022/08/14 07:54:28;;;;;;;6.20;5.80;;;23.90;99.90;;;;;;5034869;28;20667;-74
2022/08/14 07:56:54;;;;;;;5.78;5.32;;;24.00;99.90;;;;;;5037313;28;20207;-75
2022/08/14 07:59:21;;;;;;;5.93;5.45;;;24.10;99.90;;;;;;5033593;28;20196;-71
2022/08/14 08:01:47;;;;;;;5.18;4.88;;;24.10;99.90;;;;;;5035590;28;20263;-73
2022/08/14 08:04:14;;;;;;;6.03;5.40;;;24.10;99.90;;;;;;5036556;28;20296;-75
2022/08/14 08:06:40;;;;;;;6.10;5.60;;;24.20;99.90;;;;;;5041219;28;20206;-73
2022/08/14 08:09:08;;;;;;;6.53;6.03;;;24.30;99.90;;;;;;5039730;28;20176;-74
2022/08/14 08:11:37;;;;;;;6.00;5.50;;;24.40;99.90;;;;;;5022618;28;20173;-74
2022/08/14 08:14:06;;;;;;;6.05;5.65;;;24.40;99.90;;;;;;5023472;28;20196;-75
2022/08/14 08:16:33;;;;;;;6.10;5.70;;;24.50;99.90;;;;;;5044124;28;20203;-76
2022/08/14 08:18:59;;;;;;;5.90;5.45;;;24.60;99.90;;;;;;5026516;28;20452;-76
2022/08/14 08:21:25;;;;;;;6.00;5.60;;;24.60;99.90;;;;;;5034936;28;20180;-76
2022/08/14 08:23:52;;;;;;;5.53;5.13;;;24.80;99.90;;;;;;5029215;28;20193;-74
2022/08/14 08:26:18;;;;;;;5.65;5.35;;;24.90;99.90;;;;;;5027534;28;20200;-75
2022/08/14 08:28:53;;;;;;;6.45;5.85;;;24.90;99.90;;;;;;5024714;28;20532;-74
2022/08/14 08:31:19;;;;;;;6.10;5.70;;;25.00;99.90;;;;;;5025545;28;20200;-74
2022/08/14 08:33:51;;;;;;;5.20;4.80;;;25.00;99.90;;;;;;5023511;28;20262;-75
2022/08/14 08:36:17;;;;;;;5.32;5.03;;;25.00;99.90;;;;;;5033296;28;20196;-75
2022/08/14 08:38:44;;;;;;;5.43;5.03;;;25.10;99.90;;;;;;5032382;28;20196;-76
2022/08/14 08:41:11;;;;;;;8.85;5.50;;;25.10;99.90;;;;;;5024733;28;20193;-76
2022/08/14 08:43:38;;;;;;;5.88;5.47;;;25.30;99.90;;;;;;5031128;28;20276;-76
2022/08/14 08:46:09;;;;;;;5.18;4.85;;;25.40;99.90;;;;;;5034116;28;20224;-76
2022/08/14 08:48:53;;;;;;;5.28;4.88;;;25.50;99.90;;;;;;5033286;28;20210;-75
2022/08/14 08:51:23;;;;;;;4.72;4.43;;;25.50;99.90;;;;;;5025670;28;20256;-75
2022/08/14 08:54:14;;;;;;;4.70;4.40;;;25.60;99.80;;;;;;5033888;28;20183;-73
2022/08/14 08:56:43;;;;;;;4.75;4.45;;;25.60;99.50;;;;;;5027289;28;20228;-73
2022/08/14 08:59:35;;;;;;;5.25;4.85;;;25.80;97.50;;;;;;5027001;28;20268;-73
2022/08/14 09:02:02;;;;;;;4.75;4.45;;;25.80;97.30;;;;;;5028287;28;20200;-73
2022/08/14 09:04:32;;;;;;;4.78;4.38;;;25.90;97.40;;;;;;5030108;28;20197;-73
2022/08/14 09:06:58;;;;;;;4.72;4.38;;;26.00;95.90;;;;;;5035439;28;20200;-73
2022/08/14 09:09:26;;;;;;;4.88;4.57;;;26.20;95.60;;;;;;5028624;28;20186;-73
2022/08/14 09:11:54;;;;;;;4.47;4.05;;;26.40;94.50;;;;;;5039759;28;20232;-73
2022/08/14 09:14:26;;;;;;;4.47;4.28;;;26.60;93.80;;;;;;5026176;28;20726;-73
2022/08/14 09:16:53;;;;;;;4.72;4.47;;;26.80;92.60;;;;;;5035862;28;20247;-73
2022/08/14 09:19:20;;;;;;;4.07;3.78;;;27.00;92.80;;;;;;5026541;28;20204;-73
2022/08/14 09:21:46;;;;;;;4.53;4.22;;;27.30;90.90;;;;;;5033191;28;20260;-73
2022/08/14 09:24:12;;;;;;;4.18;3.92;;;28.20;88.60;;;;;;5026766;28;20701;-73
2022/08/14 09:26:40;;;;;;;4.68;4.45;;;30.20;83.10;;;;;;5024452;28;20615;-73
2022/08/14 09:29:08;;;;;;;4.40;4.10;;;32.60;73.70;;;;;;5025953;28;20178;-73
2022/08/14 09:31:36;;;;;;;4.00;3.72;;;34.70;64.60;;;;;;5027417;28;20172;-73
2022/08/14 09:34:14;;;;;;;4.05;3.22;;;36.50;59.00;;;;;;5027254;28;20690;-73
2022/08/14 09:37:01;;;;;;;3.92;3.67;;;37.90;54.30;;;;;;5023240;28;20196;-73
2022/08/14 09:39:53;;;;;;;4.40;3.33;;;39.40;50.20;;;;;;5030286;28;20176;-73
2022/08/14 09:42:28;;;;;;;3.88;3.58;;;39.50;48.40;;;;;;5026400;28;20180;-73
2022/08/14 09:45:22;;;;;;;3.72;3.53;;;38.30;50.00;;;;;;5028047;28;20238;-74
2022/08/14 09:47:53;;;;;;;4.00;3.60;;;38.20;49.80;;;;;;5033453;28;20616;-73
2022/08/14 09:50:24;;;;;;;3.20;3.08;;;39.40;48.30;;;;;;5025959;28;20755;-73
2022/08/14 09:53:03;;;;;;;3.85;3.65;;;40.10;46.90;;;;;;5030682;28;20206;-74
2022/08/14 09:55:32;;;;;;;3.75;3.55;;;41.00;45.60;;;;;;5030629;28;20187;-74
2022/08/14 09:58:10;;;;;;;3.40;3.20;;;42.00;44.60;;;;;;5027218;28;20631;-74
2022/08/14 10:00:46;;;;;;;3.67;3.38;;;42.40;43.70;;;;;;5020686;28;20267;-74
2022/08/14 10:03:23;;;;;;;3.33;3.22;;;43.00;42.60;;;;;;5021764;28;20172;-73
2022/08/14 10:05:49;;;;;;;3.45;3.20;;;43.30;41.60;;;;;;5028327;28;20236;-74
2022/08/14 10:08:20;;;;;;;3.22;3.03;;;43.60;41.60;;;;;;5023345;28;20168;-74
2022/08/14 10:10:46;;;;;;;3.40;3.30;;;43.60;40.70;;;;;;5028299;28;20325;-73
2022/08/14 10:13:25;;;;;;;3.25;3.05;;;44.00;39.80;;;;;;5023944;28;20199;-74
2022/08/14 10:15:58;;;;;;;3.40;3.20;;;44.40;39.00;;;;;;5030670;28;20208;-74
2022/08/14 10:18:26;;;;;;;2.80;2.60;;;44.90;39.00;;;;;;5017937;28;20168;-74
2022/08/14 10:20:59;;;;;;;2.97;2.83;;;45.50;38.10;;;;;;5026909;28;20524;-73
2022/08/14 10:23:38;;;;;;;2.85;2.75;;;45.60;37.90;;;;;;5027671;28;20667;-73
2022/08/14 10:26:06;;;;;;;2.83;2.72;;;45.60;37.60;;;;;;5025846;28;20196;-75
2022/08/14 10:28:47;;;;;;;3.30;3.00;;;45.80;37.00;;;;;;5031206;28;20310;-74
2022/08/14 10:31:23;;;;;;;2.88;2.78;;;45.80;36.90;;;;;;5030265;28;20179;-74
2022/08/14 10:33:59;;;;;;;3.08;2.88;;;46.20;36.00;;;;;;5027010;28;20186;-74
2022/08/14 10:36:31;;;;;;;3.22;3.00;;;46.20;36.40;;;;;;5023591;28;20292;-74
2022/08/14 10:38:59;;;;;;;3.38;3.20;;;45.90;36.60;;;;;;5025228;28;20186;-74
2022/08/14 10:41:34;;;;;;;3.15;3.00;;;45.80;36.20;;;;;;5028081;28;20187;-74
2022/08/14 10:44:17;;;;;;;3.03;2.85;;;45.00;36.70;;;;;;5023314;28;20196;-75
2022/08/14 10:46:51;;;;;;;3.40;3.03;;;45.20;36.80;;;;;;5033250;28;20247;-74
2022/08/14 10:49:25;;;;;;;3.53;3.20;;;45.30;37.10;;;;;;5026439;28;20654;-75
2022/08/14 10:52:05;;;;;;;3.67;3.38;;;45.30;37.10;;;;;;5029267;28;20182;-74
2022/08/14 10:54:34;;;;;;;3.17;3.00;;;46.00;36.60;;;;;;5029465;28;20521;-74
2022/08/14 10:57:11;;;;;;;2.80;2.70;;;46.70;35.50;;;;;;5025577;28;20200;-74
2022/08/14 10:59:41;;;;;;;2.97;2.88;;;46.90;35.40;;;;;;5027377;28;20258;-74
2022/08/14 11:02:28;;;;;;;2.80;2.70;;;47.10;35.10;;;;;;5020931;28;20211;-74
2022/08/14 11:04:59;;;;;;;2.92;2.72;;;47.40;34.60;;;;;;5029059;28;20257;-74
2022/08/14 11:07:26;;;;;;;3.05;2.95;;;47.50;35.10;;;;;;5027287;28;20201;-75
2022/08/14 11:09:56;;;;;;;3.10;3.00;;;47.70;34.50;;;;;;5026898;28;20713;-75
2022/08/14 11:12:25;;;;;;;3.10;3.00;;;47.30;34.60;;;;;;5023870;28;20621;-74
2022/08/14 11:14:58;;;;;;;3.00;2.90;;;47.00;35.20;;;;;;5027132;28;20271;-74
2022/08/14 11:17:25;;;;;;;2.90;2.75;;;47.10;35.10;;;;;;5026112;28;20232;-75
2022/08/14 11:19:57;;;;;;;3.10;2.90;;;46.50;35.40;;;;;;5022990;28;20250;-75
2022/08/14 11:22:31;;;;;;;3.15;2.83;;;46.10;35.80;;;;;;5031075;28;20177;-74
2022/08/14 11:25:09;;;;;;;3.63;3.42;;;46.00;35.80;;;;;;5024040;28;20198;-75
2022/08/14 11:27:36;;;;;;;3.08;2.88;;;46.40;35.90;;;;;;5024633;28;20192;-74
2022/08/14 11:30:08;;;;;;;3.33;3.10;;;46.70;35.50;;;;;;5025157;28;20596;-75
2022/08/14 11:32:35;;;;;;;3.20;2.97;;;46.70;35.80;;;;;;5031670;28;20176;-74
2022/08/14 11:35:04;;;;;;;3.00;2.90;;;46.50;35.90;;;;;;5028132;28;20200;-74
2022/08/14 11:37:32;;;;;;;3.30;3.10;;;46.70;35.00;;;;;;5020997;28;20340;-74
2022/08/14 11:39:59;;;;;;;3.35;3.15;;;46.70;35.20;;;;;;5028183;28;20199;-74
2022/08/14 11:42:27;;;;;;;3.50;3.30;;;46.10;35.60;;;;;;5023233;28;20179;-74
2022/08/14 11:44:56;;;;;;;4.65;4.35;;;46.50;35.20;;;;;;5027957;28;20198;-74
2022/08/14 11:47:23;;;;;;;3.45;3.20;;;45.80;35.90;;;;;;5019537;28;20686;-75
2022/08/14 11:49:49;;;;;;;3.42;3.22;;;46.50;35.40;;;;;;5029256;28;20194;-75
2022/08/14 11:52:16;;;;;;;3.22;3.05;;;46.20;35.30;;;;;;5036091;28;20172;-75
2022/08/14 11:54:45;;;;;;;3.20;3.03;;;46.20;35.50;;;;;;5028167;28;20179;-75
2022/08/14 11:57:15;;;;;;;3.50;3.22;;;46.50;35.40;;;;;;5026189;28;20303;-74
2022/08/14 11:59:41;;;;;;;5.70;3.10;;;47.10;34.60;;;;;;5028244;28;20592;-75
2022/08/14 12:02:16;;;;;;;3.05;2.95;;;46.50;34.80;;;;;;5025610;28;20264;-75
2022/08/14 12:04:49;;;;;;;3.05;2.85;;;46.10;34.60;;;;;;5026454;28;20222;-74
2022/08/14 12:07:15;;;;;;;3.30;3.00;;;45.00;35.90;;;;;;5025324;28;20193;-75
2022/08/14 12:09:40;;;;;;;3.60;3.30;;;44.10;36.40;;;;;;5029436;28;20230;-75
2022/08/14 12:12:21;;;;;;;3.03;2.92;;;43.60;37.20;;;;;;5026989;28;20192;-74
2022/08/14 12:14:58;;;;;;;3.03;2.83;;;43.30;37.60;;;;;;5025963;28;20191;-76
2022/08/14 12:17:28;;;;;;;3.28;3.10;;;43.40;37.30;;;;;;5028538;28;20196;-75
2022/08/14 12:19:57;;;;;;;3.63;3.42;;;43.60;36.80;;;;;;5025737;28;20674;-75
2022/08/14 12:22:33;;;;;;;3.15;2.95;;;43.60;36.80;;;;;;5034007;28;20195;-76
2022/08/14 12:24:59;;;;;;;2.80;2.70;;;43.60;37.00;;;;;;5034537;28;20232;-76
2022/08/14 12:27:42;;;;;;;3.13;3.03;;;43.20;37.80;;;;;;5034723;28;20200;-76
2022/08/14 12:30:11;;;;;;;3.17;3.05;;;43.10;37.40;;;;;;5029618;28;20646;-75
2022/08/14 12:32:42;;;;;;;3.42;3.13;;;42.90;37.50;;;;;;5030238;28;20227;-74
2022/08/14 12:35:08;;;;;;;3.35;2.83;;;43.10;37.70;;;;;;5030142;28;20176;-75
2022/08/14 12:37:35;;;;;;;3.40;3.30;;;43.50;37.20;;;;;;5033084;28;20206;-75
2022/08/14 12:40:30;;;;;;;3.38;2.95;;;43.70;37.00;;;;;;5032354;28;20628;-75
2022/08/14 12:43:02;;;;;;;2.97;2.80;;;44.20;36.20;;;;;;5031191;28;20211;-75
2022/08/14 12:45:33;;;;;;;2.85;2.72;;;44.40;36.20;;;;;;5026936;28;20222;-75
2022/08/14 12:48:00;;;;;;;3.42;3.22;;;43.80;36.40;;;;;;5029388;28;20211;-76
2022/08/14 12:50:40;;;;;;;3.22;2.95;;;43.50;36.80;;;;;;5026902;28;20668;-73
2022/08/14 12:53:07;;;;;;;2.90;2.75;;;43.00;37.20;;;;;;5021005;28;20235;-73
2022/08/14 12:55:38;;;;;;;2.78;2.67;;;43.10;37.10;;;;;;5036362;28;20172;-74
2022/08/14 12:58:05;;;;;;;2.75;2.65;;;42.80;37.50;;;;;;5033324;28;20207;-73
2022/08/14 13:00:34;;;;;;;2.85;2.75;;;43.40;36.60;;;;;;5033951;28;20172;-74
2022/08/14 13:03:00;;;;;;;2.80;2.70;;;43.90;35.40;;;;;;5027473;28;20184;-74
2022/08/14 13:05:30;;;;;;;2.67;2.47;;;44.80;35.20;;;;;;5030672;28;20659;-74
2022/08/14 13:07:56;;;;;;;2.33;2.22;;;46.10;33.70;;;;;;5030548;28;20208;-74
2022/08/14 13:10:22;;;;;;;2.70;2.50;;;47.20;32.60;;;;;;5026407;28;20225;-74
2022/08/14 13:12:53;;;;;;;2.70;2.60;;;48.00;32.00;;;;;;5030207;28;20552;-74